sensor_id;sensor_type;location;lat;lon;timestamp;P1;durP1;ratioP1;P2;durP2;ratioP2
80411;SDS011;69749;42.684;23.360;2023-11-18T00:00:26;0.90;;;0.90;;
80411;SDS011;69749;42.684;23.360;2023-11-18T00:02:52;1.13;;;1.00;;
80411;SDS011;69749;42.684;23.360;2023-11-18T00:05:17;1.15;;;1.05;;
80411;SDS011;69749;42.684;23.360;2023-11-18T00:07:43;0.95;;;0.90;;
80411;SDS011;69749;42.684;23.360;2023-11-18T00:10:09;1.30;;;1.08;;
80411;SDS011;69749;42.684;23.360;2023-11-18T00:12:35;0.80;;;0.80;;
80411;SDS011;69749;42.684;23.360;2023-11-18T00:15:03;0.90;;;0.90;;
80411;SDS011;69749;42.684;23.360;2023-11-18T00:17:29;1.10;;;1.00;;
80411;SDS011;69749;42.684;23.360;2023-11-18T00:19:55;1.10;;;1.00;;
80411;SDS011;69749;42.684;23.360;2023-11-18T00:22:21;1.02;;;0.90;;
80411;SDS011;69749;42.684;23.360;2023-11-18T00:24:46;1.60;;;0.90;;
80411;SDS011;69749;42.684;23.360;2023-11-18T00:27:12;0.98;;;0.98;;
80411;SDS011;69749;42.684;23.360;2023-11-18T00:29:40;1.45;;;1.00;;
80411;SDS011;69749;42.684;23.360;2023-11-18T00:32:06;1.73;;;1.00;;
80411;SDS011;69749;42.684;23.360;2023-11-18T00:34:32;0.70;;;0.70;;
80411;SDS011;69749;42.684;23.360;2023-11-18T00:37:01;1.15;;;1.00;;
80411;SDS011;69749;42.684;23.360;2023-11-18T00:39:26;0.80;;;0.80;;
80411;SDS011;69749;42.684;23.360;2023-11-18T00:41:52;1.52;;;1.38;;
80411;SDS011;69749;42.684;23.360;2023-11-18T00:44:17;1.00;;;1.00;;
80411;SDS011;69749;42.684;23.360;2023-11-18T00:46:43;0.88;;;0.88;;
80411;SDS011;69749;42.684;23.360;2023-11-18T00:49:08;1.58;;;0.80;;
80411;SDS011;69749;42.684;23.360;2023-11-18T00:51:36;1.60;;;1.10;;
80411;SDS011;69749;42.684;23.360;2023-11-18T00:54:02;1.23;;;1.00;;
80411;SDS011;69749;42.684;23.360;2023-11-18T00:56:30;1.67;;;1.30;;
80411;SDS011;69749;42.684;23.360;2023-11-18T00:58:56;1.48;;;1.08;;
80411;SDS011;69749;42.684;23.360;2023-11-18T01:01:22;1.63;;;1.00;;
80411;SDS011;69749;42.684;23.360;2023-11-18T01:03:47;1.30;;;1.20;;
80411;SDS011;69749;42.684;23.360;2023-11-18T01:06:13;1.23;;;1.13;;
80411;SDS011;69749;42.684;23.360;2023-11-18T01:08:43;1.30;;;1.20;;
80411;SDS011;69749;42.684;23.360;2023-11-18T01:11:09;1.17;;;1.10;;
80411;SDS011;69749;42.684;23.360;2023-11-18T01:13:34;1.25;;;1.15;;
80411;SDS011;69749;42.684;23.360;2023-11-18T01:16:00;1.17;;;1.17;;
80411;SDS011;69749;42.684;23.360;2023-11-18T01:18:26;1.63;;;1.20;;
80411;SDS011;69749;42.684;23.360;2023-11-18T01:20:52;1.10;;;1.00;;
80411;SDS011;69749;42.684;23.360;2023-11-18T01:23:18;3.20;;;1.27;;
80411;SDS011;69749;42.684;23.360;2023-11-18T01:25:43;0.95;;;0.95;;
80411;SDS011;69749;42.684;23.360;2023-11-18T01:28:09;1.33;;;1.23;;
80411;SDS011;69749;42.684;23.360;2023-11-18T01:30:34;1.40;;;1.20;;
80411;SDS011;69749;42.684;23.360;2023-11-18T01:33:00;3.50;;;1.75;;
80411;SDS011;69749;42.684;23.360;2023-11-18T01:35:29;1.63;;;1.52;;
80411;SDS011;69749;42.684;23.360;2023-11-18T01:37:54;1.60;;;1.50;;
80411;SDS011;69749;42.684;23.360;2023-11-18T01:40:20;2.05;;;1.85;;
80411;SDS011;69749;42.684;23.360;2023-11-18T01:42:46;1.70;;;1.58;;
80411;SDS011;69749;42.684;23.360;2023-11-18T01:45:12;1.83;;;1.70;;
80411;SDS011;69749;42.684;23.360;2023-11-18T01:47:39;1.70;;;1.60;;
80411;SDS011;69749;42.684;23.360;2023-11-18T01:50:06;1.83;;;1.70;;
80411;SDS011;69749;42.684;23.360;2023-11-18T01:52:34;1.50;;;1.40;;
80411;SDS011;69749;42.684;23.360;2023-11-18T01:55:00;1.77;;;1.67;;
80411;SDS011;69749;42.684;23.360;2023-11-18T01:57:28;1.70;;;1.60;;
80411;SDS011;69749;42.684;23.360;2023-11-18T01:59:54;1.50;;;1.40;;
80411;SDS011;69749;42.684;23.360;2023-11-18T02:02:20;1.33;;;1.23;;
80411;SDS011;69749;42.684;23.360;2023-11-18T02:04:46;1.58;;;1.48;;
80411;SDS011;69749;42.684;23.360;2023-11-18T02:07:12;1.33;;;1.23;;
80411;SDS011;69749;42.684;23.360;2023-11-18T02:09:40;1.50;;;1.40;;
80411;SDS011;69749;42.684;23.360;2023-11-18T02:12:08;1.58;;;1.48;;
80411;SDS011;69749;42.684;23.360;2023-11-18T02:14:45;1.50;;;1.35;;
80411;SDS011;69749;42.684;23.360;2023-11-18T02:17:12;1.67;;;1.52;;
80411;SDS011;69749;42.684;23.360;2023-11-18T02:19:39;1.67;;;1.58;;
80411;SDS011;69749;42.684;23.360;2023-11-18T02:22:06;1.60;;;1.50;;
80411;SDS011;69749;42.684;23.360;2023-11-18T02:24:33;1.88;;;1.73;;
80411;SDS011;69749;42.684;23.360;2023-11-18T02:27:02;1.50;;;1.40;;
80411;SDS011;69749;42.684;23.360;2023-11-18T02:29:34;1.60;;;1.50;;
80411;SDS011;69749;42.684;23.360;2023-11-18T02:32:13;2.15;;;1.70;;
80411;SDS011;69749;42.684;23.360;2023-11-18T02:34:58;2.03;;;1.48;;
80411;SDS011;69749;42.684;23.360;2023-11-18T02:37:30;2.97;;;1.58;;
80411;SDS011;69749;42.684;23.360;2023-11-18T02:40:00;1.67;;;1.58;;
80411;SDS011;69749;42.684;23.360;2023-11-18T02:42:33;3.55;;;2.10;;
80411;SDS011;69749;42.684;23.360;2023-11-18T02:45:04;2.17;;;1.98;;
80411;SDS011;69749;42.684;23.360;2023-11-18T02:47:32;2.03;;;1.90;;
80411;SDS011;69749;42.684;23.360;2023-11-18T02:49:58;2.30;;;2.10;;
80411;SDS011;69749;42.684;23.360;2023-11-18T02:52:39;2.38;;;2.17;;
80411;SDS011;69749;42.684;23.360;2023-11-18T02:55:05;2.13;;;1.98;;
80411;SDS011;69749;42.684;23.360;2023-11-18T02:57:32;1.55;;;1.45;;
80411;SDS011;69749;42.684;23.360;2023-11-18T02:59:58;2.88;;;2.17;;
80411;SDS011;69749;42.684;23.360;2023-11-18T03:02:25;2.20;;;2.00;;
80411;SDS011;69749;42.684;23.360;2023-11-18T03:04:54;2.85;;;2.50;;
80411;SDS011;69749;42.684;23.360;2023-11-18T03:07:20;2.70;;;2.50;;
80411;SDS011;69749;42.684;23.360;2023-11-18T03:09:45;2.35;;;2.10;;
80411;SDS011;69749;42.684;23.360;2023-11-18T03:12:12;3.17;;;2.80;;
80411;SDS011;69749;42.684;23.360;2023-11-18T03:14:38;2.40;;;2.20;;
80411;SDS011;69749;42.684;23.360;2023-11-18T03:17:03;2.70;;;2.50;;
80411;SDS011;69749;42.684;23.360;2023-11-18T03:19:34;3.08;;;2.40;;
80411;SDS011;69749;42.684;23.360;2023-11-18T03:22:00;2.63;;;2.35;;
80411;SDS011;69749;42.684;23.360;2023-11-18T03:24:28;2.67;;;2.47;;
80411;SDS011;69749;42.684;23.360;2023-11-18T03:26:57;3.03;;;2.72;;
80411;SDS011;69749;42.684;23.360;2023-11-18T03:29:22;2.88;;;2.67;;
80411;SDS011;69749;42.684;23.360;2023-11-18T03:31:48;3.47;;;3.10;;
80411;SDS011;69749;42.684;23.360;2023-11-18T03:34:17;4.80;;;2.95;;
80411;SDS011;69749;42.684;23.360;2023-11-18T03:36:45;1.83;;;1.63;;
80411;SDS011;69749;42.684;23.360;2023-11-18T03:39:14;2.75;;;2.50;;
80411;SDS011;69749;42.684;23.360;2023-11-18T03:41:40;2.92;;;2.65;;
80411;SDS011;69749;42.684;23.360;2023-11-18T03:44:09;2.55;;;2.35;;
80411;SDS011;69749;42.684;23.360;2023-11-18T03:46:38;2.10;;;2.00;;
80411;SDS011;69749;42.684;23.360;2023-11-18T03:49:03;3.17;;;2.45;;
80411;SDS011;69749;42.684;23.360;2023-11-18T03:51:29;2.72;;;2.33;;
80411;SDS011;69749;42.684;23.360;2023-11-18T03:53:54;3.05;;;2.75;;
80411;SDS011;69749;42.684;23.360;2023-11-18T03:56:20;2.60;;;2.40;;
80411;SDS011;69749;42.684;23.360;2023-11-18T03:58:45;3.40;;;3.10;;
80411;SDS011;69749;42.684;23.360;2023-11-18T04:01:24;3.30;;;2.72;;
80411;SDS011;69749;42.684;23.360;2023-11-18T04:03:53;5.88;;;2.67;;
80411;SDS011;69749;42.684;23.360;2023-11-18T04:06:19;3.38;;;2.83;;
80411;SDS011;69749;42.684;23.360;2023-11-18T04:08:46;3.05;;;2.60;;
80411;SDS011;69749;42.684;23.360;2023-11-18T04:11:13;2.30;;;2.13;;
80411;SDS011;69749;42.684;23.360;2023-11-18T04:13:42;3.15;;;2.38;;
80411;SDS011;69749;42.684;23.360;2023-11-18T04:16:12;2.50;;;2.30;;
80411;SDS011;69749;42.684;23.360;2023-11-18T04:18:38;2.90;;;2.60;;
80411;SDS011;69749;42.684;23.360;2023-11-18T04:21:05;3.55;;;2.47;;
80411;SDS011;69749;42.684;23.360;2023-11-18T04:23:31;2.60;;;2.40;;
80411;SDS011;69749;42.684;23.360;2023-11-18T04:25:58;3.00;;;2.70;;
80411;SDS011;69749;42.684;23.360;2023-11-18T04:28:23;5.32;;;3.53;;
80411;SDS011;69749;42.684;23.360;2023-11-18T04:30:49;3.35;;;2.35;;
80411;SDS011;69749;42.684;23.360;2023-11-18T04:33:14;3.13;;;2.92;;
80411;SDS011;69749;42.684;23.360;2023-11-18T04:35:40;4.60;;;3.10;;
80411;SDS011;69749;42.684;23.360;2023-11-18T04:38:05;2.75;;;2.47;;
80411;SDS011;69749;42.684;23.360;2023-11-18T04:40:31;2.58;;;2.33;;
80411;SDS011;69749;42.684;23.360;2023-11-18T04:42:56;2.85;;;2.55;;
80411;SDS011;69749;42.684;23.360;2023-11-18T04:45:22;2.08;;;1.88;;
80411;SDS011;69749;42.684;23.360;2023-11-18T04:47:47;2.95;;;2.60;;
80411;SDS011;69749;42.684;23.360;2023-11-18T04:50:14;2.45;;;2.25;;
80411;SDS011;69749;42.684;23.360;2023-11-18T04:52:40;2.67;;;1.85;;
80411;SDS011;69749;42.684;23.360;2023-11-18T04:55:06;2.85;;;2.35;;
80411;SDS011;69749;42.684;23.360;2023-11-18T04:57:35;2.30;;;2.10;;
80411;SDS011;69749;42.684;23.360;2023-11-18T05:00:01;4.00;;;2.40;;
80411;SDS011;69749;42.684;23.360;2023-11-18T05:05:00;2.80;;;2.60;;
80411;SDS011;69749;42.684;23.360;2023-11-18T05:07:26;2.20;;;2.00;;
80411;SDS011;69749;42.684;23.360;2023-11-18T05:09:53;2.42;;;2.20;;
80411;SDS011;69749;42.684;23.360;2023-11-18T05:12:19;2.80;;;2.42;;
80411;SDS011;69749;42.684;23.360;2023-11-18T05:14:44;2.13;;;1.95;;
80411;SDS011;69749;42.684;23.360;2023-11-18T05:17:10;2.10;;;1.98;;
80411;SDS011;69749;42.684;23.360;2023-11-18T05:19:35;2.45;;;2.25;;
80411;SDS011;69749;42.684;23.360;2023-11-18T05:22:01;2.30;;;2.10;;
80411;SDS011;69749;42.684;23.360;2023-11-18T05:24:26;2.88;;;2.63;;
80411;SDS011;69749;42.684;23.360;2023-11-18T05:26:52;2.88;;;2.55;;
80411;SDS011;69749;42.684;23.360;2023-11-18T05:29:18;3.03;;;2.53;;
80411;SDS011;69749;42.684;23.360;2023-11-18T05:31:43;3.75;;;2.58;;
80411;SDS011;69749;42.684;23.360;2023-11-18T05:34:09;2.17;;;1.98;;
80411;SDS011;69749;42.684;23.360;2023-11-18T05:36:35;2.53;;;2.33;;
80411;SDS011;69749;42.684;23.360;2023-11-18T05:39:03;3.15;;;2.10;;
80411;SDS011;69749;42.684;23.360;2023-11-18T05:41:30;1.98;;;1.77;;
80411;SDS011;69749;42.684;23.360;2023-11-18T05:43:55;2.40;;;2.20;;
80411;SDS011;69749;42.684;23.360;2023-11-18T05:46:23;2.13;;;1.83;;
80411;SDS011;69749;42.684;23.360;2023-11-18T05:48:54;2.70;;;1.77;;
80411;SDS011;69749;42.684;23.360;2023-11-18T05:51:24;2.10;;;1.90;;
80411;SDS011;69749;42.684;23.360;2023-11-18T05:53:51;1.73;;;1.63;;
80411;SDS011;69749;42.684;23.360;2023-11-18T05:56:18;2.25;;;2.05;;
80411;SDS011;69749;42.684;23.360;2023-11-18T05:58:44;1.60;;;1.50;;
80411;SDS011;69749;42.684;23.360;2023-11-18T06:01:10;2.38;;;1.80;;
80411;SDS011;69749;42.684;23.360;2023-11-18T06:03:37;1.70;;;1.38;;
80411;SDS011;69749;42.684;23.360;2023-11-18T06:06:12;1.70;;;1.33;;
80411;SDS011;69749;42.684;23.360;2023-11-18T06:08:41;2.53;;;1.67;;
80411;SDS011;69749;42.684;23.360;2023-11-18T06:11:10;2.20;;;1.40;;
80411;SDS011;69749;42.684;23.360;2023-11-18T06:16:12;1.15;;;1.02;;
80411;SDS011;69749;42.684;23.360;2023-11-18T06:18:42;1.08;;;0.90;;
80411;SDS011;69749;42.684;23.360;2023-11-18T06:21:13;1.35;;;1.23;;
80411;SDS011;69749;42.684;23.360;2023-11-18T06:23:39;1.70;;;1.20;;
80411;SDS011;69749;42.684;23.360;2023-11-18T06:26:05;1.35;;;1.23;;
80411;SDS011;69749;42.684;23.360;2023-11-18T06:28:30;2.17;;;1.50;;
80411;SDS011;69749;42.684;23.360;2023-11-18T06:30:58;1.67;;;1.40;;
80411;SDS011;69749;42.684;23.360;2023-11-18T06:33:24;1.10;;;1.00;;
80411;SDS011;69749;42.684;23.360;2023-11-18T06:35:52;1.83;;;1.33;;
80411;SDS011;69749;42.684;23.360;2023-11-18T06:38:21;1.50;;;1.20;;
80411;SDS011;69749;42.684;23.360;2023-11-18T06:40:47;1.33;;;1.20;;
80411;SDS011;69749;42.684;23.360;2023-11-18T06:43:17;2.50;;;1.30;;
80411;SDS011;69749;42.684;23.360;2023-11-18T06:45:44;0.82;;;0.80;;
80411;SDS011;69749;42.684;23.360;2023-11-18T06:48:09;1.85;;;1.10;;
80411;SDS011;69749;42.684;23.360;2023-11-18T06:50:35;1.33;;;1.13;;
80411;SDS011;69749;42.684;23.360;2023-11-18T06:53:00;1.52;;;1.25;;
80411;SDS011;69749;42.684;23.360;2023-11-18T06:55:26;1.08;;;0.98;;
80411;SDS011;69749;42.684;23.360;2023-11-18T06:57:52;3.42;;;1.20;;
80411;SDS011;69749;42.684;23.360;2023-11-18T07:00:20;1.83;;;1.30;;
80411;SDS011;69749;42.684;23.360;2023-11-18T07:02:47;1.20;;;0.90;;
80411;SDS011;69749;42.684;23.360;2023-11-18T07:05:13;1.10;;;0.90;;
80411;SDS011;69749;42.684;23.360;2023-11-18T07:07:40;1.27;;;1.20;;
80411;SDS011;69749;42.684;23.360;2023-11-18T07:10:06;0.80;;;0.80;;
80411;SDS011;69749;42.684;23.360;2023-11-18T07:12:33;1.98;;;0.80;;
80411;SDS011;69749;42.684;23.360;2023-11-18T07:15:03;0.90;;;0.90;;
80411;SDS011;69749;42.684;23.360;2023-11-18T07:17:29;3.03;;;1.20;;
80411;SDS011;69749;42.684;23.360;2023-11-18T07:19:55;1.10;;;1.02;;
80411;SDS011;69749;42.684;23.360;2023-11-18T07:22:20;1.63;;;0.80;;
80411;SDS011;69749;42.684;23.360;2023-11-18T07:24:46;2.78;;;0.88;;
80411;SDS011;69749;42.684;23.360;2023-11-18T07:27:12;2.05;;;1.30;;
80411;SDS011;69749;42.684;23.360;2023-11-18T07:29:38;0.82;;;0.80;;
80411;SDS011;69749;42.684;23.360;2023-11-18T07:32:04;0.90;;;0.90;;
80411;SDS011;69749;42.684;23.360;2023-11-18T07:34:33;1.30;;;0.90;;
80411;SDS011;69749;42.684;23.360;2023-11-18T07:36:59;0.95;;;0.95;;
80411;SDS011;69749;42.684;23.360;2023-11-18T07:39:25;1.35;;;1.25;;
80411;SDS011;69749;42.684;23.360;2023-11-18T07:42:08;1.50;;;0.98;;
80411;SDS011;69749;42.684;23.360;2023-11-18T07:44:34;1.63;;;1.30;;
80411;SDS011;69749;42.684;23.360;2023-11-18T07:47:00;1.17;;;1.10;;
80411;SDS011;69749;42.684;23.360;2023-11-18T07:49:25;2.95;;;1.38;;
80411;SDS011;69749;42.684;23.360;2023-11-18T07:51:51;0.93;;;0.93;;
80411;SDS011;69749;42.684;23.360;2023-11-18T07:54:17;1.35;;;1.15;;
80411;SDS011;69749;42.684;23.360;2023-11-18T07:56:43;3.65;;;1.20;;
80411;SDS011;69749;42.684;23.360;2023-11-18T07:59:11;1.23;;;1.10;;
80411;SDS011;69749;42.684;23.360;2023-11-18T08:01:41;3.63;;;1.20;;
80411;SDS011;69749;42.684;23.360;2023-11-18T08:04:09;2.42;;;1.00;;
80411;SDS011;69749;42.684;23.360;2023-11-18T08:06:35;2.28;;;1.20;;
80411;SDS011;69749;42.684;23.360;2023-11-18T08:09:01;1.85;;;1.60;;
80411;SDS011;69749;42.684;23.360;2023-11-18T08:11:27;2.15;;;1.35;;
80411;SDS011;69749;42.684;23.360;2023-11-18T08:13:54;1.02;;;0.90;;
80411;SDS011;69749;42.684;23.360;2023-11-18T08:16:20;4.00;;;1.27;;
80411;SDS011;69749;42.684;23.360;2023-11-18T08:18:47;1.40;;;1.30;;
80411;SDS011;69749;42.684;23.360;2023-11-18T08:21:12;3.42;;;1.27;;
80411;SDS011;69749;42.684;23.360;2023-11-18T08:23:38;1.60;;;1.20;;
80411;SDS011;69749;42.684;23.360;2023-11-18T08:26:05;1.20;;;1.10;;
80411;SDS011;69749;42.684;23.360;2023-11-18T08:28:30;1.30;;;1.10;;
80411;SDS011;69749;42.684;23.360;2023-11-18T08:30:56;1.30;;;1.20;;
80411;SDS011;69749;42.684;23.360;2023-11-18T08:33:22;1.90;;;1.60;;
80411;SDS011;69749;42.684;23.360;2023-11-18T08:35:49;2.38;;;1.85;;
80411;SDS011;69749;42.684;23.360;2023-11-18T08:38:14;1.50;;;1.40;;
80411;SDS011;69749;42.684;23.360;2023-11-18T08:40:40;2.38;;;1.42;;
80411;SDS011;69749;42.684;23.360;2023-11-18T08:43:07;1.50;;;1.38;;
80411;SDS011;69749;42.684;23.360;2023-11-18T08:45:33;1.13;;;1.02;;
80411;SDS011;69749;42.684;23.360;2023-11-18T08:48:00;3.22;;;2.00;;
80411;SDS011;69749;42.684;23.360;2023-11-18T08:50:27;2.15;;;1.27;;
80411;SDS011;69749;42.684;23.360;2023-11-18T08:52:54;1.60;;;1.35;;
80411;SDS011;69749;42.684;23.360;2023-11-18T08:55:23;1.63;;;1.30;;
80411;SDS011;69749;42.684;23.360;2023-11-18T08:58:03;2.42;;;1.35;;
80411;SDS011;69749;42.684;23.360;2023-11-18T09:00:41;2.08;;;1.70;;
80411;SDS011;69749;42.684;23.360;2023-11-18T09:03:13;4.80;;;2.53;;
80411;SDS011;69749;42.684;23.360;2023-11-18T09:05:46;1.92;;;1.25;;
80411;SDS011;69749;42.684;23.360;2023-11-18T09:10:49;1.30;;;1.15;;
80411;SDS011;69749;42.684;23.360;2023-11-18T09:13:19;1.48;;;1.25;;
80411;SDS011;69749;42.684;23.360;2023-11-18T09:15:53;1.80;;;1.70;;
80411;SDS011;69749;42.684;23.360;2023-11-18T09:18:21;2.00;;;1.55;;
80411;SDS011;69749;42.684;23.360;2023-11-18T09:20:47;2.25;;;1.45;;
80411;SDS011;69749;42.684;23.360;2023-11-18T09:23:13;1.67;;;1.38;;
80411;SDS011;69749;42.684;23.360;2023-11-18T09:28:06;1.48;;;1.20;;
80411;SDS011;69749;42.684;23.360;2023-11-18T09:30:35;2.40;;;1.67;;
80411;SDS011;69749;42.684;23.360;2023-11-18T09:33:03;1.70;;;1.25;;
80411;SDS011;69749;42.684;23.360;2023-11-18T09:35:39;2.92;;;1.50;;
80411;SDS011;69749;42.684;23.360;2023-11-18T09:38:05;2.33;;;1.40;;
80411;SDS011;69749;42.684;23.360;2023-11-18T09:40:32;2.08;;;1.52;;
80411;SDS011;69749;42.684;23.360;2023-11-18T09:43:02;1.80;;;1.65;;
80411;SDS011;69749;42.684;23.360;2023-11-18T09:45:34;1.58;;;1.48;;
80411;SDS011;69749;42.684;23.360;2023-11-18T09:48:01;1.70;;;1.60;;
80411;SDS011;69749;42.684;23.360;2023-11-18T09:50:32;1.70;;;1.60;;
80411;SDS011;69749;42.684;23.360;2023-11-18T09:52:58;5.18;;;1.17;;
80411;SDS011;69749;42.684;23.360;2023-11-18T09:55:37;1.70;;;1.25;;
80411;SDS011;69749;42.684;23.360;2023-11-18T09:58:09;1.85;;;1.75;;
80411;SDS011;69749;42.684;23.360;2023-11-18T10:00:41;2.05;;;1.63;;
80411;SDS011;69749;42.684;23.360;2023-11-18T10:03:07;1.33;;;1.15;;
80411;SDS011;69749;42.684;23.360;2023-11-18T10:05:35;3.10;;;1.77;;
80411;SDS011;69749;42.684;23.360;2023-11-18T10:08:04;1.70;;;1.38;;
80411;SDS011;69749;42.684;23.360;2023-11-18T10:10:33;1.90;;;1.60;;
80411;SDS011;69749;42.684;23.360;2023-11-18T10:13:03;1.70;;;1.42;;
80411;SDS011;69749;42.684;23.360;2023-11-18T10:15:33;2.53;;;1.50;;
80411;SDS011;69749;42.684;23.360;2023-11-18T10:18:00;2.40;;;1.50;;
80411;SDS011;69749;42.684;23.360;2023-11-18T10:23:07;2.25;;;1.88;;
80411;SDS011;69749;42.684;23.360;2023-11-18T10:25:48;3.00;;;1.77;;
80411;SDS011;69749;42.684;23.360;2023-11-18T10:28:33;2.70;;;1.38;;
80411;SDS011;69749;42.684;23.360;2023-11-18T10:31:03;1.08;;;1.08;;
80411;SDS011;69749;42.684;23.360;2023-11-18T10:33:36;1.98;;;1.20;;
80411;SDS011;69749;42.684;23.360;2023-11-18T10:36:03;1.33;;;1.23;;
80411;SDS011;69749;42.684;23.360;2023-11-18T10:38:32;1.58;;;1.48;;
80411;SDS011;69749;42.684;23.360;2023-11-18T10:41:02;1.65;;;1.55;;
80411;SDS011;69749;42.684;23.360;2023-11-18T10:43:27;3.90;;;1.25;;
80411;SDS011;69749;42.684;23.360;2023-11-18T10:46:15;2.38;;;1.38;;
80411;SDS011;69749;42.684;23.360;2023-11-18T10:48:44;2.42;;;1.40;;
80411;SDS011;69749;42.684;23.360;2023-11-18T10:51:16;2.15;;;1.70;;
80411;SDS011;69749;42.684;23.360;2023-11-18T10:53:48;1.40;;;1.30;;
80411;SDS011;69749;42.684;23.360;2023-11-18T10:56:29;1.73;;;1.63;;
80411;SDS011;69749;42.684;23.360;2023-11-18T10:59:06;2.55;;;1.45;;
80411;SDS011;69749;42.684;23.360;2023-11-18T11:01:37;3.83;;;3.17;;
80411;SDS011;69749;42.684;23.360;2023-11-18T11:04:14;1.85;;;1.60;;
80411;SDS011;69749;42.684;23.360;2023-11-18T11:06:46;1.70;;;1.33;;
80411;SDS011;69749;42.684;23.360;2023-11-18T11:09:21;2.25;;;1.70;;
80411;SDS011;69749;42.684;23.360;2023-11-18T11:12:00;1.88;;;1.52;;
80411;SDS011;69749;42.684;23.360;2023-11-18T11:14:35;3.15;;;1.70;;
80411;SDS011;69749;42.684;23.360;2023-11-18T11:17:12;1.50;;;1.40;;
80411;SDS011;69749;42.684;23.360;2023-11-18T11:20:25;1.67;;;1.52;;
80411;SDS011;69749;42.684;23.360;2023-11-18T11:22:38;5.40;;;2.28;;
80411;SDS011;69749;42.684;23.360;2023-11-18T11:27:59;2.17;;;1.20;;
80411;SDS011;69749;42.684;23.360;2023-11-18T11:30:40;2.92;;;2.20;;
80411;SDS011;69749;42.684;23.360;2023-11-18T11:33:13;4.32;;;2.22;;
80411;SDS011;69749;42.684;23.360;2023-11-18T11:35:42;2.53;;;2.33;;
80411;SDS011;69749;42.684;23.360;2023-11-18T11:38:14;1.42;;;1.27;;
80411;SDS011;69749;42.684;23.360;2023-11-18T11:40:42;1.67;;;1.58;;
80411;SDS011;69749;42.684;23.360;2023-11-18T11:43:09;1.70;;;1.60;;
80411;SDS011;69749;42.684;23.360;2023-11-18T11:45:40;3.92;;;1.52;;
80411;SDS011;69749;42.684;23.360;2023-11-18T11:48:08;2.28;;;1.70;;
80411;SDS011;69749;42.684;23.360;2023-11-18T11:51:00;2.10;;;1.40;;
80411;SDS011;69749;42.684;23.360;2023-11-18T11:53:35;2.08;;;1.45;;
80411;SDS011;69749;42.684;23.360;2023-11-18T11:56:04;2.70;;;1.77;;
80411;SDS011;69749;42.684;23.360;2023-11-18T11:58:32;1.88;;;1.13;;
80411;SDS011;69749;42.684;23.360;2023-11-18T12:01:01;2.33;;;1.40;;
80411;SDS011;69749;42.684;23.360;2023-11-18T12:03:40;1.52;;;1.30;;
80411;SDS011;69749;42.684;23.360;2023-11-18T12:06:08;3.00;;;1.25;;
80411;SDS011;69749;42.684;23.360;2023-11-18T12:08:37;2.83;;;1.85;;
80411;SDS011;69749;42.684;23.360;2023-11-18T12:11:02;2.25;;;1.73;;
80411;SDS011;69749;42.684;23.360;2023-11-18T12:13:35;3.63;;;1.55;;
80411;SDS011;69749;42.684;23.360;2023-11-18T12:16:04;1.70;;;1.60;;
80411;SDS011;69749;42.684;23.360;2023-11-18T12:18:30;4.60;;;1.95;;
80411;SDS011;69749;42.684;23.360;2023-11-18T12:21:01;2.42;;;2.15;;
80411;SDS011;69749;42.684;23.360;2023-11-18T12:23:28;1.73;;;1.63;;
80411;SDS011;69749;42.684;23.360;2023-11-18T12:25:55;2.83;;;1.92;;
80411;SDS011;69749;42.684;23.360;2023-11-18T12:28:32;2.63;;;2.13;;
80411;SDS011;69749;42.684;23.360;2023-11-18T12:31:10;2.47;;;1.92;;
80411;SDS011;69749;42.684;23.360;2023-11-18T12:42:02;1.90;;;1.58;;
80411;SDS011;69749;42.684;23.360;2023-11-18T12:44:35;2.10;;;1.80;;
80411;SDS011;69749;42.684;23.360;2023-11-18T12:47:05;2.00;;;1.83;;
80411;SDS011;69749;42.684;23.360;2023-11-18T12:49:46;3.85;;;1.80;;
80411;SDS011;69749;42.684;23.360;2023-11-18T12:52:19;1.60;;;1.50;;
80411;SDS011;69749;42.684;23.360;2023-11-18T12:54:47;3.55;;;1.52;;
80411;SDS011;69749;42.684;23.360;2023-11-18T12:57:16;1.70;;;1.60;;
80411;SDS011;69749;42.684;23.360;2023-11-18T12:59:42;3.70;;;1.55;;
80411;SDS011;69749;42.684;23.360;2023-11-18T13:02:09;2.58;;;1.48;;
80411;SDS011;69749;42.684;23.360;2023-11-18T13:04:44;2.03;;;1.83;;
80411;SDS011;69749;42.684;23.360;2023-11-18T13:09:42;2.53;;;1.92;;
80411;SDS011;69749;42.684;23.360;2023-11-18T13:12:10;2.55;;;2.00;;
80411;SDS011;69749;42.684;23.360;2023-11-18T13:14:39;6.45;;;1.70;;
80411;SDS011;69749;42.684;23.360;2023-11-18T13:17:11;1.77;;;1.67;;
80411;SDS011;69749;42.684;23.360;2023-11-18T13:19:38;2.55;;;1.80;;
80411;SDS011;69749;42.684;23.360;2023-11-18T13:22:08;2.65;;;1.70;;
80411;SDS011;69749;42.684;23.360;2023-11-18T13:24:35;2.00;;;1.75;;
80411;SDS011;69749;42.684;23.360;2023-11-18T13:27:01;2.70;;;1.85;;
80411;SDS011;69749;42.684;23.360;2023-11-18T13:29:31;1.80;;;1.70;;
80411;SDS011;69749;42.684;23.360;2023-11-18T13:31:58;2.33;;;2.13;;
80411;SDS011;69749;42.684;23.360;2023-11-18T13:34:28;3.83;;;1.95;;
80411;SDS011;69749;42.684;23.360;2023-11-18T13:36:55;3.08;;;2.35;;
80411;SDS011;69749;42.684;23.360;2023-11-18T13:39:21;2.42;;;1.83;;
80411;SDS011;69749;42.684;23.360;2023-11-18T13:41:49;2.40;;;2.20;;
80411;SDS011;69749;42.684;23.360;2023-11-18T13:47:06;2.42;;;2.13;;
80411;SDS011;69749;42.684;23.360;2023-11-18T13:49:32;2.58;;;2.38;;
80411;SDS011;69749;42.684;23.360;2023-11-18T13:52:01;3.33;;;2.10;;
80411;SDS011;69749;42.684;23.360;2023-11-18T13:54:28;2.25;;;1.60;;
80411;SDS011;69749;42.684;23.360;2023-11-18T13:56:54;3.15;;;2.20;;
80411;SDS011;69749;42.684;23.360;2023-11-18T13:59:24;3.00;;;2.40;;
80411;SDS011;69749;42.684;23.360;2023-11-18T14:01:54;3.13;;;2.53;;
80411;SDS011;69749;42.684;23.360;2023-11-18T14:04:29;2.60;;;2.40;;
80411;SDS011;69749;42.684;23.360;2023-11-18T14:07:01;2.35;;;2.17;;
80411;SDS011;69749;42.684;23.360;2023-11-18T14:09:30;3.67;;;2.70;;
80411;SDS011;69749;42.684;23.360;2023-11-18T14:12:00;4.80;;;2.80;;
80411;SDS011;69749;42.684;23.360;2023-11-18T14:14:27;2.22;;;1.92;;
80411;SDS011;69749;42.684;23.360;2023-11-18T14:16:53;2.85;;;2.65;;
80411;SDS011;69749;42.684;23.360;2023-11-18T14:19:22;3.15;;;2.75;;
80411;SDS011;69749;42.684;23.360;2023-11-18T14:21:49;3.88;;;2.90;;
80411;SDS011;69749;42.684;23.360;2023-11-18T14:24:16;4.22;;;3.17;;
80411;SDS011;69749;42.684;23.360;2023-11-18T14:26:43;2.55;;;2.08;;
80411;SDS011;69749;42.684;23.360;2023-11-18T14:29:11;3.70;;;2.63;;
80411;SDS011;69749;42.684;23.360;2023-11-18T14:31:37;2.80;;;2.60;;
80411;SDS011;69749;42.684;23.360;2023-11-18T14:34:03;2.90;;;2.58;;
80411;SDS011;69749;42.684;23.360;2023-11-18T14:36:29;2.60;;;2.40;;
80411;SDS011;69749;42.684;23.360;2023-11-18T14:38:55;2.65;;;2.45;;
80411;SDS011;69749;42.684;23.360;2023-11-18T14:41:21;2.88;;;2.60;;
80411;SDS011;69749;42.684;23.360;2023-11-18T14:43:52;2.83;;;2.53;;
80411;SDS011;69749;42.684;23.360;2023-11-18T14:46:18;5.10;;;3.10;;
80411;SDS011;69749;42.684;23.360;2023-11-18T14:48:43;4.53;;;3.80;;
80411;SDS011;69749;42.684;23.360;2023-11-18T14:51:09;3.78;;;3.00;;
80411;SDS011;69749;42.684;23.360;2023-11-18T14:53:35;4.80;;;2.60;;
80411;SDS011;69749;42.684;23.360;2023-11-18T14:56:02;4.47;;;3.35;;
80411;SDS011;69749;42.684;23.360;2023-11-18T14:58:30;3.42;;;3.13;;
80411;SDS011;69749;42.684;23.360;2023-11-18T15:00:57;3.05;;;2.58;;
80411;SDS011;69749;42.684;23.360;2023-11-18T15:03:24;2.35;;;2.15;;
80411;SDS011;69749;42.684;23.360;2023-11-18T15:05:50;2.88;;;2.67;;
80411;SDS011;69749;42.684;23.360;2023-11-18T15:08:15;4.68;;;3.30;;